Time;durP1;ratioP1;P1;durP2;ratioP2;P2;SDS_P1;SDS_P2;PMS_P1;PMS_P2;Temp;Humidity;BMP_temperature;BMP_pressure;BME280_temperature;BME280_humidity;BME280_pressure;Samples;Min_cycle;Max_cycle;Signal;HPM_P1;HPM_P2
2022/10/11 00:01:41;;;;;;;13.10;3.65;;;;;;;;;;5050043;28;20028;-63
2022/10/11 00:04:06;;;;;;;19.95;5.22;;;;;;;;;;5048660;28;20111;-63
2022/10/11 00:06:32;;;;;;;12.65;4.10;;;;;;;;;;5046442;28;20394;-63
2022/10/11 00:08:57;;;;;;;19.20;5.40;;;;;;;;;;5067732;28;20039;-64
2022/10/11 00:11:22;;;;;;;39.10;6.68;;;;;;;;;;5068986;28;20117;-63
2022/10/11 00:13:48;;;;;;;17.27;6.28;;;;;;;;;;5069007;28;20472;-64
2022/10/11 00:16:14;;;;;;;19.48;5.55;;;;;;;;;;5068813;28;20140;-63
2022/10/11 00:18:40;;;;;;;27.70;5.43;;;;;;;;;;5068848;28;20167;-63
2022/10/11 00:21:12;;;;;;;16.45;5.80;;;;;;;;;;5048253;28;20120;-63
2022/10/11 00:23:38;;;;;;;20.95;7.57;;;;;;;;;;5028384;28;20038;-63
2022/10/11 00:26:06;;;;;;;15.10;5.53;;;;;;;;;;5028983;28;20050;-63
2022/10/11 00:28:32;;;;;;;14.50;5.10;;;;;;;;;;5029611;28;20100;-63
2022/10/11 00:30:57;;;;;;;9.95;3.97;;;;;;;;;;5053657;28;20044;-63
2022/10/11 00:33:23;;;;;;;9.85;3.70;;;;;;;;;;5068522;28;20041;-63
2022/10/11 00:35:48;;;;;;;6.60;2.97;;;;;;;;;;5068947;28;20029;-63
2022/10/11 00:38:14;;;;;;;6.82;3.10;;;;;;;;;;5068080;28;20043;-63
2022/10/11 00:40:39;;;;;;;5.85;2.78;;;;;;;;;;5050963;28;20017;-63
2022/10/11 00:43:15;;;;;;;8.10;3.78;;;;;;;;;;5048813;28;20032;-63
2022/10/11 00:45:56;;;;;;;8.38;3.30;;;;;;;;;;5048303;28;20040;-63
2022/10/11 00:48:48;;;;;;;8.30;3.88;;;;;;;;;;5048459;28;20044;-63
2022/10/11 00:51:32;;;;;;;9.50;4.00;;;;;;;;;;5042405;28;20512;-63
2022/10/11 00:53:59;;;;;;;26.65;3.97;;;;;;;;;;5030830;28;20037;-63
2022/10/11 00:56:36;;;;;;;14.30;4.20;;;;;;;;;;5048347;28;20133;-63
2022/10/11 00:59:07;;;;;;;24.48;3.72;;;;;;;;;;5043707;28;20490;-63
2022/10/11 01:01:32;;;;;;;13.63;3.50;;;;;;;;;;5027477;28;20025;-63
2022/10/11 01:03:58;;;;;;;31.83;3.88;;;;;;;;;;5028315;28;20124;-63
2022/10/11 01:06:24;;;;;;;17.77;3.88;;;;;;;;;;5028520;28;20784;-63
2022/10/11 01:08:50;;;;;;;13.25;3.80;;;;;;;;;;5028000;28;20025;-63
2022/10/11 01:11:19;;;;;;;7.93;3.58;;;;;;;;;;5028374;28;20037;-64
2022/10/11 01:14:00;;;;;;;8.38;3.55;;;;;;;;;;5010017;28;20088;-63
2022/10/11 01:16:31;;;;;;;6.55;3.17;;;;;;;;;;5028118;28;20069;-64
2022/10/11 01:18:59;;;;;;;6.55;3.33;;;;;;;;;;5027650;28;20544;-63
2022/10/11 01:21:51;;;;;;;7.25;3.40;;;;;;;;;;5027870;28;20068;-63
2022/10/11 01:24:34;;;;;;;7.72;3.05;;;;;;;;;;5026963;28;20415;-63
2022/10/11 01:27:06;;;;;;;;;;;;;;;;;;5026979;28;20041;-63
2022/10/11 01:30:03;;;;;;;6.32;2.95;;;;;;;;;;5027603;28;19920;-64
2022/10/11 01:32:39;;;;;;;5.85;3.20;;;;;;;;;;5028104;28;20041;-63
2022/10/11 01:35:18;;;;;;;6.55;2.83;;;;;;;;;;5027364;28;20503;-63
2022/10/11 01:37:52;;;;;;;4.70;2.45;;;;;;;;;;5027984;28;20447;-63
2022/10/11 01:40:21;;;;;;;8.85;3.15;;;;;;;;;;5042644;28;20510;-63
2022/10/11 01:42:48;;;;;;;9.15;2.97;;;;;;;;;;5047647;28;20095;-63
2022/10/11 01:45:16;;;;;;;6.97;3.20;;;;;;;;;;5047250;28;20650;-63
2022/10/11 01:47:41;;;;;;;6.78;3.38;;;;;;;;;;5029591;28;20056;-63
2022/10/11 01:50:43;;;;;;;6.07;3.00;;;;;;;;;;5047351;28;20053;-63
2022/10/11 01:53:11;;;;;;;9.90;3.60;;;;;;;;;;5047693;28;20044;-63
2022/10/11 01:55:54;;;;;;;10.82;3.40;;;;;;;;;;5047718;28;20104;-63
2022/10/11 01:58:51;;;;;;;69.07;4.72;;;;;;;;;;5042056;28;20453;-63
2022/10/11 02:01:38;;;;;;;19.48;3.47;;;;;;;;;;5026070;28;20059;-63
2022/10/11 02:04:16;;;;;;;7.18;3.30;;;;;;;;;;5047153;28;20123;-63
2022/10/11 02:07:00;;;;;;;12.75;3.28;;;;;;;;;;5047314;28;20029;-63
2022/10/11 02:09:35;;;;;;;22.63;3.35;;;;;;;;;;5036636;28;20037;-63
2022/10/11 02:12:06;;;;;;;13.68;3.33;;;;;;;;;;5046775;28;20832;-63
2022/10/11 02:14:35;;;;;;;54.88;3.72;;;;;;;;;;5044011;28;20049;-63
2022/10/11 02:17:07;;;;;;;9.18;2.40;;;;;;;;;;5043984;28;20117;-63
2022/10/11 02:19:40;;;;;;;14.73;3.15;;;;;;;;;;5047285;28;20051;-63
2022/10/11 02:22:08;;;;;;;;;;;;;;;;;;5047632;28;20144;-63
2022/10/11 02:24:38;;;;;;;16.40;3.53;;;;;;;;;;5046641;28;20382;-63
2022/10/11 02:27:05;;;;;;;30.65;3.72;;;;;;;;;;5046981;28;20106;-63
2022/10/11 02:29:34;;;;;;;47.65;4.65;;;;;;;;;;5046373;28;20029;-63
2022/10/11 02:32:00;;;;;;;35.88;4.30;;;;;;;;;;5061892;28;20115;-63
2022/10/11 02:34:31;;;;;;;24.70;3.97;;;;;;;;;;5049077;28;20115;-63
2022/10/11 02:37:35;;;;;;;47.75;4.32;;;;;;;;;;5048579;28;20048;-63
2022/10/11 02:40:04;;;;;;;5.32;3.28;;;;;;;;;;5038247;28;20127;-63
2022/10/11 02:42:35;;;;;;;50.38;3.92;;;;;;;;;;5046677;28;20044;-63
2022/10/11 02:45:26;;;;;;;34.53;3.88;;;;;;;;;;5046852;28;20047;-63
2022/10/11 02:47:52;;;;;;;36.30;3.47;;;;;;;;;;5046307;28;20128;-63
2022/10/11 02:50:18;;;;;;;14.18;3.25;;;;;;;;;;5046428;28;20048;-63
2022/10/11 02:52:43;;;;;;;28.63;3.10;;;;;;;;;;5049498;28;20048;-63
2022/10/11 02:55:09;;;;;;;29.85;3.15;;;;;;;;;;5037069;28;20049;-63
2022/10/11 02:57:35;;;;;;;21.17;3.58;;;;;;;;;;5026247;28;20041;-63
2022/10/11 03:00:00;;;;;;;5.75;2.88;;;;;;;;;;5027767;28;20418;-63
2022/10/11 03:02:26;;;;;;;7.75;3.17;;;;;;;;;;5046140;28;20075;-63
2022/10/11 03:04:51;;;;;;;9.57;3.47;;;;;;;;;;5046034;28;20071;-63
2022/10/11 03:07:17;;;;;;;7.72;3.30;;;;;;;;;;5046251;28;20021;-63
2022/10/11 03:09:42;;;;;;;7.65;3.65;;;;;;;;;;5045943;28;20040;-63
2022/10/11 03:12:07;;;;;;;8.40;3.30;;;;;;;;;;5045256;28;20186;-63
2022/10/11 03:14:33;;;;;;;7.30;3.38;;;;;;;;;;5051696;28;20083;-63
2022/10/11 03:16:59;;;;;;;85.70;5.18;;;;;;;;;;5052421;28;20033;-63
2022/10/11 03:19:24;;;;;;;47.15;3.58;;;;;;;;;;5053280;28;20481;-63
2022/10/11 03:21:50;;;;;;;38.08;4.03;;;;;;;;;;5066409;28;20514;-63
2022/10/11 03:24:15;;;;;;;23.02;4.18;;;;;;;;;;5072126;28;20036;-63
2022/10/11 03:26:40;;;;;;;17.35;3.70;;;;;;;;;;5073027;28;20059;-63
2022/10/11 03:29:06;;;;;;;45.45;4.07;;;;;;;;;;5072672;28;20028;-63
2022/10/11 03:31:31;;;;;;;46.63;3.80;;;;;;;;;;5073097;28;20032;-63
2022/10/11 03:33:56;;;;;;;6.97;2.70;;;;;;;;;;5072232;28;20091;-64
2022/10/11 03:36:21;;;;;;;24.50;3.90;;;;;;;;;;5072624;28;20036;-63
2022/10/11 03:38:47;;;;;;;34.97;4.22;;;;;;;;;;5051950;28;20044;-63
2022/10/11 03:41:12;;;;;;;13.73;3.22;;;;;;;;;;5052185;28;20029;-63
2022/10/11 03:43:37;;;;;;;35.17;4.53;;;;;;;;;;5053266;28;20029;-63
2022/10/11 03:46:03;;;;;;;12.50;4.28;;;;;;;;;;5052714;28;20075;-63
2022/10/11 03:48:28;;;;;;;13.43;3.30;;;;;;;;;;5052210;28;20033;-64
2022/10/11 03:50:54;;;;;;;35.08;3.50;;;;;;;;;;5052964;28;20041;-63
2022/10/11 03:53:19;;;;;;;7.60;2.92;;;;;;;;;;5052199;28;20036;-64
2022/10/11 03:55:44;;;;;;;23.50;2.97;;;;;;;;;;5052992;28;20020;-63
2022/10/11 03:58:10;;;;;;;12.45;2.88;;;;;;;;;;5034523;28;20094;-63
2022/10/11 04:00:35;;;;;;;19.17;3.10;;;;;;;;;;5052468;28;20033;-63
2022/10/11 04:03:02;;;;;;;13.52;3.20;;;;;;;;;;5052230;28;20029;-63
2022/10/11 04:05:29;;;;;;;9.25;3.75;;;;;;;;;;5052083;28;20108;-64
2022/10/11 04:07:54;;;;;;;16.63;3.33;;;;;;;;;;5051974;28;20037;-63
2022/10/11 04:10:20;;;;;;;19.92;5.70;;;;;;;;;;5034387;28;20040;-64
2022/10/11 04:12:45;;;;;;;29.13;5.28;;;;;;;;;;5051875;28;20064;-63
2022/10/11 04:15:13;;;;;;;44.10;7.30;;;;;;;;;;5052141;28;20033;-63
2022/10/11 04:17:39;;;;;;;45.47;7.45;;;;;;;;;;5052074;28;20037;-63
2022/10/11 04:20:06;;;;;;;32.10;6.63;;;;;;;;;;5051727;28;20043;-63
2022/10/11 04:22:32;;;;;;;40.60;5.75;;;;;;;;;;5052090;28;20107;-63
2022/10/11 04:24:58;;;;;;;39.20;4.90;;;;;;;;;;5050244;28;20483;-63
2022/10/11 04:27:26;;;;;;;24.42;4.20;;;;;;;;;;5048634;28;20560;-63
2022/10/11 04:29:51;;;;;;;9.00;3.10;;;;;;;;;;5049201;28;20710;-63
2022/10/11 04:32:16;;;;;;;8.50;3.78;;;;;;;;;;5031108;28;20067;-63
2022/10/11 04:34:42;;;;;;;10.18;3.35;;;;;;;;;;5048668;28;20036;-63
2022/10/11 04:37:07;;;;;;;13.82;3.20;;;;;;;;;;5048685;28;20037;-63
2022/10/11 04:39:33;;;;;;;29.15;3.55;;;;;;;;;;5030753;28;20037;-63
2022/10/11 04:41:58;;;;;;;8.05;2.85;;;;;;;;;;5032382;28;20163;-63
2022/10/11 04:44:23;;;;;;;10.55;2.92;;;;;;;;;;5028732;28;20037;-63
2022/10/11 04:46:49;;;;;;;15.07;3.13;;;;;;;;;;5028631;28;20037;-62
2022/10/11 04:49:14;;;;;;;5.30;3.10;;;;;;;;;;5034089;28;20032;-63
2022/10/11 04:51:39;;;;;;;5.63;3.13;;;;;;;;;;5049178;28;20040;-63
2022/10/11 04:54:04;;;;;;;5.55;3.40;;;;;;;;;;5033177;28;20045;-63
2022/10/11 04:56:30;;;;;;;4.25;2.58;;;;;;;;;;5027488;28;20041;-63
2022/10/11 04:58:55;;;;;;;3.75;2.50;;;;;;;;;;5059572;28;20039;-62
2022/10/11 05:01:20;;;;;;;7.63;3.08;;;;;;;;;;5068846;28;20093;-63
2022/10/11 05:03:47;;;;;;;7.93;3.58;;;;;;;;;;5068553;28;20553;-63
2022/10/11 05:06:12;;;;;;;5.78;3.00;;;;;;;;;;5067501;28;20037;-62
2022/10/11 05:08:38;;;;;;;5.55;3.30;;;;;;;;;;5027878;28;20098;-63
2022/10/11 05:11:07;;;;;;;6.93;3.83;;;;;;;;;;5028546;28;20039;-63
2022/10/11 05:13:34;;;;;;;4.97;3.22;;;;;;;;;;5028156;28;20045;-63
2022/10/11 05:15:59;;;;;;;5.25;3.42;;;;;;;;;;5042996;28;20415;-63
2022/10/11 05:18:25;;;;;;;17.75;3.80;;;;;;;;;;5047967;28;20047;-63
2022/10/11 05:21:00;;;;;;;8.02;3.83;;;;;;;;;;5047939;28;20029;-63
2022/10/11 05:23:27;;;;;;;14.38;6.95;;;;;;;;;;5047205;28;20052;-63
2022/10/11 05:25:52;;;;;;;12.88;5.95;;;;;;;;;;5048339;28;20052;-63
2022/10/11 05:28:18;;;;;;;20.23;5.32;;;;;;;;;;5047732;28;20521;-63
2022/10/11 05:30:43;;;;;;;58.63;6.75;;;;;;;;;;5046193;28;20041;-63
2022/10/11 05:33:09;;;;;;;44.65;5.97;;;;;;;;;;5048498;28;20036;-63
2022/10/11 05:35:34;;;;;;;14.93;5.82;;;;;;;;;;5046981;28;20068;-63
2022/10/11 05:37:59;;;;;;;38.50;7.43;;;;;;;;;;5036832;28;20044;-63
2022/10/11 05:40:25;;;;;;;36.42;8.13;;;;;;;;;;5048602;28;20099;-63
2022/10/11 05:42:50;;;;;;;18.77;7.82;;;;;;;;;;5048773;28;20033;-63
2022/10/11 05:45:15;;;;;;;37.20;8.93;;;;;;;;;;5047021;28;20037;-63
2022/10/11 05:47:41;;;;;;;17.80;8.27;;;;;;;;;;5048860;28;20033;-63
2022/10/11 05:50:06;;;;;;;22.00;7.07;;;;;;;;;;5030980;28;20075;-63
2022/10/11 05:52:31;;;;;;;15.32;7.28;;;;;;;;;;5048435;28;20039;-62
2022/10/11 05:54:57;;;;;;;14.52;7.13;;;;;;;;;;5050732;28;20059;-63
2022/10/11 05:57:22;;;;;;;15.27;6.30;;;;;;;;;;5068490;28;20068;-63
2022/10/11 05:59:47;;;;;;;10.57;5.93;;;;;;;;;;5068275;28;20037;-63
2022/10/11 06:02:13;;;;;;;22.17;5.63;;;;;;;;;;5067600;28;20048;-63
2022/10/11 06:04:38;;;;;;;16.83;3.85;;;;;;;;;;5068779;28;20402;-63
2022/10/11 06:07:05;;;;;;;13.45;6.68;;;;;;;;;;5056930;28;20025;-63
2022/10/11 06:09:30;;;;;;;19.95;6.70;;;;;;;;;;5043079;28;20044;-63
2022/10/11 06:11:55;;;;;;;21.83;5.40;;;;;;;;;;5050337;28;20033;-63
2022/10/11 06:14:21;;;;;;;15.82;5.47;;;;;;;;;;5067490;28;20044;-63
2022/10/11 06:16:46;;;;;;;26.27;5.72;;;;;;;;;;5068098;28;20082;-63
2022/10/11 06:19:12;;;;;;;72.72;7.28;;;;;;;;;;5068319;28;20439;-63
2022/10/11 06:21:37;;;;;;;30.50;6.18;;;;;;;;;;5044698;28;20514;-63
2022/10/11 06:24:03;;;;;;;36.13;5.82;;;;;;;;;;5029022;28;20570;-71
2022/10/11 06:26:29;;;;;;;44.38;6.22;;;;;;;;;;5029160;28;20493;-66
2022/10/11 06:28:55;;;;;;;36.97;5.70;;;;;;;;;;5043590;28;20506;-66
2022/10/11 06:31:20;;;;;;;58.50;5.85;;;;;;;;;;5042269;28;20037;-66
2022/10/11 06:33:46;;;;;;;40.83;4.90;;;;;;;;;;5032365;28;20110;-66
2022/10/11 06:36:13;;;;;;;20.13;5.40;;;;;;;;;;5025654;28;20049;-66
2022/10/11 06:38:39;;;;;;;14.60;4.70;;;;;;;;;;5029533;28;20037;-66
2022/10/11 06:41:25;;;;;;;36.60;5.45;;;;;;;;;;5046514;28;20087;-66
2022/10/11 06:43:51;;;;;;;18.60;4.65;;;;;;;;;;5049523;28;20028;-66
2022/10/11 06:46:18;;;;;;;36.00;4.47;;;;;;;;;;5066844;28;20055;-66
2022/10/11 06:48:44;;;;;;;10.02;4.10;;;;;;;;;;5065994;28;20029;-66
2022/10/11 06:51:15;;;;;;;16.55;5.38;;;;;;;;;;5066330;28;20033;-66
2022/10/11 06:53:41;;;;;;;25.00;5.00;;;;;;;;;;5044144;28;20091;-67
2022/10/11 06:56:09;;;;;;;24.55;5.20;;;;;;;;;;5044476;28;20032;-66
2022/10/11 06:58:35;;;;;;;18.83;6.32;;;;;;;;;;5049413;28;20029;-66
2022/10/11 07:01:02;;;;;;;48.70;6.47;;;;;;;;;;5067933;28;20035;-66
2022/10/11 07:03:28;;;;;;;19.00;6.30;;;;;;;;;;5065770;28;20489;-66
2022/10/11 07:05:59;;;;;;;28.23;6.78;;;;;;;;;;5015262;28;20025;-66
2022/10/11 07:08:24;;;;;;;36.15;7.32;;;;;;;;;;5009557;28;20041;-66
2022/10/11 07:10:50;;;;;;;16.75;6.70;;;;;;;;;;5027291;28;20163;-66
2022/10/11 07:13:15;;;;;;;18.15;6.07;;;;;;;;;;5027900;28;20055;-66
2022/10/11 07:15:41;;;;;;;18.10;6.97;;;;;;;;;;5026973;28;20562;-66
2022/10/11 07:18:06;;;;;;;16.00;6.07;;;;;;;;;;5027324;28;20053;-66
2022/10/11 07:20:31;;;;;;;76.90;11.85;;;;;;;;;;5031974;28;20430;-66
2022/10/11 07:22:57;;;;;;;66.82;11.68;;;;;;;;;;5047371;28;20401;-66
2022/10/11 07:25:22;;;;;;;55.50;10.05;;;;;;;;;;5042980;28;20432;-66
2022/10/11 07:27:47;;;;;;;17.95;7.18;;;;;;;;;;5036292;28;20087;-66
2022/10/11 07:30:13;;;;;;;22.35;7.82;;;;;;;;;;5035620;28;20037;-66
2022/10/11 07:32:38;;;;;;;17.92;6.32;;;;;;;;;;5038402;28;20036;-66
2022/10/11 07:35:04;;;;;;;12.43;5.88;;;;;;;;;;5027823;28;20021;-66
2022/10/11 07:37:29;;;;;;;8.93;4.45;;;;;;;;;;5026362;28;20074;-66
2022/10/11 07:39:54;;;;;;;13.32;5.50;;;;;;;;;;5035858;28;20030;-66
2022/10/11 07:42:21;;;;;;;22.50;8.10;;;;;;;;;;5043592;28;20486;-66
2022/10/11 07:44:47;;;;;;;20.45;7.68;;;;;;;;;;5044992;28;20455;-66
2022/10/11 07:47:12;;;;;;;20.92;7.28;;;;;;;;;;5037656;28;20056;-66
2022/10/11 07:49:37;;;;;;;26.08;8.48;;;;;;;;;;5032707;28;20044;-66
2022/10/11 07:52:03;;;;;;;27.35;8.40;;;;;;;;;;5029791;28;20036;-66
2022/10/11 07:54:28;;;;;;;20.75;8.35;;;;;;;;;;5029109;28;20049;-66
2022/10/11 07:56:53;;;;;;;22.08;8.02;;;;;;;;;;5039234;28;20562;-66
2022/10/11 07:59:19;;;;;;;15.32;6.70;;;;;;;;;;5068030;28;20116;-66
2022/10/11 08:01:44;;;;;;;13.85;5.82;;;;;;;;;;5070359;28;20138;-66
2022/10/11 08:04:09;;;;;;;10.88;5.65;;;;;;;;;;5070315;28;20069;-68
2022/10/11 08:06:36;;;;;;;9.60;5.03;;;;;;;;;;5067430;28;20086;-61
2022/10/11 08:09:02;;;;;;;16.33;4.97;;;;;;;;;;5070467;28;20724;-61
2022/10/11 08:11:33;;;;;;;11.82;5.47;;;;;;;;;;5070375;28;20063;-65
2022/10/11 08:13:59;;;;;;;19.73;5.43;;;;;;;;;;5052471;28;20522;-64
2022/10/11 08:16:24;;;;;;;9.70;4.85;;;;;;;;;;5070378;28;20033;-65
2022/10/11 08:18:50;;;;;;;14.30;5.55;;;;;;;;;;5070335;28;20029;-65
2022/10/11 08:21:16;;;;;;;12.40;5.45;;;;;;;;;;5052344;28;20425;-64
2022/10/11 08:23:42;;;;;;;22.38;5.88;;;;;;;;;;5049788;28;20774;-64
2022/10/11 08:26:08;;;;;;;12.02;7.30;;;;;;;;;;5050296;28;20041;-65
2022/10/11 08:28:34;;;;;;;16.00;6.13;;;;;;;;;;5050099;28;20025;-64
2022/10/11 08:31:00;;;;;;;14.52;6.85;;;;;;;;;;5050362;28;20032;-64
2022/10/11 08:33:26;;;;;;;14.35;6.40;;;;;;;;;;5050130;28;20098;-64
2022/10/11 08:35:53;;;;;;;12.52;6.30;;;;;;;;;;5047363;28;20041;-65
2022/10/11 08:38:19;;;;;;;15.13;5.63;;;;;;;;;;5048304;28;20049;-64
2022/10/11 08:40:48;;;;;;;16.27;6.45;;;;;;;;;;5048731;28;20025;-65
2022/10/11 08:43:45;;;;;;;19.48;6.65;;;;;;;;;;5048515;28;20548;-65
2022/10/11 08:46:12;;;;;;;12.95;6.70;;;;;;;;;;5028911;28;20041;-65
2022/10/11 08:48:45;;;;;;;14.50;6.75;;;;;;;;;;5028968;28;20033;-65
2022/10/11 08:51:46;;;;;;;21.25;7.63;;;;;;;;;;5029162;28;20049;-65
2022/10/11 08:54:34;;;;;;;15.32;6.68;;;;;;;;;;5030128;28;20514;-64
2022/10/11 08:57:03;;;;;;;17.83;8.05;;;;;;;;;;5029665;28;20091;-65
2022/10/11 08:59:36;;;;;;;18.30;7.43;;;;;;;;;;5028717;28;20171;-64
2022/10/11 09:02:31;;;;;;;21.80;8.65;;;;;;;;;;5032244;28;20033;-65
2022/10/11 09:04:56;;;;;;;23.08;8.35;;;;;;;;;;5028589;28;20045;-65
2022/10/11 09:07:41;;;;;;;14.90;7.53;;;;;;;;;;5028142;28;20380;-64
2022/10/11 09:10:11;;;;;;;20.70;7.20;;;;;;;;;;5034152;28;20079;-65
2022/10/11 09:13:11;;;;;;;14.55;7.45;;;;;;;;;;5048368;28;20722;-65
2022/10/11 09:15:39;;;;;;;18.60;7.80;;;;;;;;;;5047889;28;20025;-65
2022/10/11 09:18:15;;;;;;;28.25;7.75;;;;;;;;;;5048094;28;20132;-64
2022/10/11 09:20:50;;;;;;;15.90;6.75;;;;;;;;;;5045453;28;20044;-65
2022/10/11 09:23:41;;;;;;;22.05;6.97;;;;;;;;;;5050576;28;20040;-65
2022/10/11 09:26:38;;;;;;;22.90;7.30;;;;;;;;;;5069047;28;20040;-65
2022/10/11 09:29:22;;;;;;;12.85;5.53;;;;;;;;;;5068986;28;20059;-65
2022/10/11 09:31:51;;;;;;;20.88;6.18;;;;;;;;;;5036778;28;20108;-65
2022/10/11 09:34:17;;;;;;;23.52;5.95;;;;;;;;;;5028566;28;20025;-65
2022/10/11 09:36:54;;;;;;;16.98;6.85;;;;;;;;;;5048635;28;20757;-65
2022/10/11 09:39:31;;;;;;;13.88;4.93;;;;;;;;;;5048309;28;20043;-65
2022/10/11 09:42:06;;;;;;;14.70;5.47;;;;;;;;;;5048924;28;20128;-65
2022/10/11 09:44:37;;;;;;;14.00;5.63;;;;;;;;;;5048699;28;20033;-65
2022/10/11 09:47:03;;;;;;;9.95;5.03;;;;;;;;;;5048648;28;20029;-65
2022/10/11 09:49:34;;;;;;;13.35;4.78;;;;;;;;;;5055694;28;20506;-65
2022/10/11 09:52:02;;;;;;;9.98;4.60;;;;;;;;;;5048878;28;20041;-65
2022/10/11 09:54:45;;;;;;;16.08;6.13;;;;;;;;;;5048173;28;20126;-65
2022/10/11 09:57:26;;;;;;;15.93;5.18;;;;;;;;;;5054311;28;20035;-64
2022/10/11 09:59:58;;;;;;;16.65;4.65;;;;;;;;;;5011170;28;20037;-65
2022/10/11 10:02:24;;;;;;;15.00;4.82;;;;;;;;;;5028471;28;20033;-65
2022/10/11 10:04:52;;;;;;;17.60;5.07;;;;;;;;;;5027855;28;20542;-65
2022/10/11 10:07:17;;;;;;;13.57;4.72;;;;;;;;;;5033728;28;20017;-65
2022/10/11 10:09:42;;;;;;;10.23;4.78;;;;;;;;;;5054386;28;20036;-65
2022/10/11 10:12:18;;;;;;;15.50;4.55;;;;;;;;;;5050109;28;20120;-65
2022/10/11 10:14:54;;;;;;;10.82;4.32;;;;;;;;;;5054362;28;20099;-64
2022/10/11 10:17:19;;;;;;;12.55;3.53;;;;;;;;;;5028568;28;20044;-65
2022/10/11 10:19:50;;;;;;;12.82;3.83;;;;;;;;;;5026037;28;20033;-65
2022/10/11 10:22:22;;;;;;;8.80;3.30;;;;;;;;;;5027453;28;20025;-64
2022/10/11 10:24:49;;;;;;;8.38;2.95;;;;;;;;;;5027874;28;20120;-65
2022/10/11 10:27:19;;;;;;;6.93;3.08;;;;;;;;;;5028114;28;20033;-65
2022/10/11 10:30:08;;;;;;;12.18;3.17;;;;;;;;;;5028312;28;20095;-65
2022/10/11 10:32:41;;;;;;;5.10;2.35;;;;;;;;;;5048877;28;20127;-65
2022/10/11 10:35:06;;;;;;;;;;;;;;;;;;5047200;28;20045;-65
2022/10/11 10:37:54;;;;;;;6.23;2.43;;;;;;;;;;5047631;28;19916;-64
2022/10/11 10:40:24;;;;;;;18.25;2.50;;;;;;;;;;5044227;28;20763;-65
2022/10/11 10:42:50;;;;;;;14.95;2.10;;;;;;;;;;5068042;28;20598;-65
2022/10/11 10:45:16;;;;;;;8.02;1.77;;;;;;;;;;5049382;28;20044;-65
2022/10/11 10:47:48;;;;;;;9.63;1.30;;;;;;;;;;5066143;28;20033;-65
2022/10/11 10:50:16;;;;;;;6.88;1.27;;;;;;;;;;5063551;28;20549;-65
2022/10/11 10:52:47;;;;;;;3.25;1.38;;;;;;;;;;5027424;28;20033;-64
2022/10/11 10:55:35;;;;;;;9.63;2.15;;;;;;;;;;5028018;28;20042;-65
2022/10/11 10:58:19;;;;;;;5.45;1.58;;;;;;;;;;5028106;28;20065;-65
2022/10/11 11:00:46;;;;;;;;;;;;;;;;;;5028301;28;20080;-64
2022/10/11 11:03:39;;;;;;;6.32;1.70;;;;;;;;;;5036505;28;20463;-64
2022/10/11 11:06:08;;;;;;;10.60;1.55;;;;;;;;;;5043733;28;20510;-64
2022/10/11 11:08:56;;;;;;;7.38;2.05;;;;;;;;;;5047550;28;20120;-65
2022/10/11 11:11:38;;;;;;;8.82;1.67;;;;;;;;;;5047064;28;20124;-65
2022/10/11 11:14:10;;;;;;;7.32;1.92;;;;;;;;;;5029735;28;20045;-65
2022/10/11 11:16:52;;;;;;;7.18;1.70;;;;;;;;;;5046880;28;20336;-65
2022/10/11 11:19:54;;;;;;;9.82;1.20;;;;;;;;;;5047653;28;20126;-64
2022/10/11 11:22:40;;;;;;;6.70;1.70;;;;;;;;;;5045655;28;20068;-64
2022/10/11 11:25:34;;;;;;;8.45;1.83;;;;;;;;;;5047060;28;20411;-65
2022/10/11 11:28:17;;;;;;;5.05;1.52;;;;;;;;;;5047398;28;20033;-65
2022/10/11 11:31:12;;;;;;;11.35;2.05;;;;;;;;;;5047091;28;20041;-65
2022/10/11 11:33:58;;;;;;;4.10;1.48;;;;;;;;;;5057775;28;20055;-65
2022/10/11 11:36:43;;;;;;;3.70;1.75;;;;;;;;;;5045897;28;20068;-64
2022/10/11 11:39:18;;;;;;;8.50;2.13;;;;;;;;;;5048985;28;20044;-64
2022/10/11 11:41:51;;;;;;;2.97;1.40;;;;;;;;;;5049040;28;20079;-65
2022/10/11 11:44:29;;;;;;;4.47;1.95;;;;;;;;;;5048931;28;20536;-65
2022/10/11 11:47:16;;;;;;;7.47;1.63;;;;;;;;;;5049186;28;20112;-65
2022/10/11 11:49:48;;;;;;;8.25;1.92;;;;;;;;;;5047648;28;20027;-65
2022/10/11 11:52:24;;;;;;;6.40;1.85;;;;;;;;;;5031815;28;20048;-64
2022/10/11 11:54:58;;;;;;;3.80;1.92;;;;;;;;;;5044079;28;20410;-64
2022/10/11 11:57:56;;;;;;;5.55;1.38;;;;;;;;;;5049012;28;20036;-65
2022/10/11 12:00:28;;;;;;;5.38;1.42;;;;;;;;;;5038121;28;20040;-65
2022/10/11 12:03:08;;;;;;;7.45;1.77;;;;;;;;;;5040054;28;20029;-65
2022/10/11 12:05:35;;;;;;;7.80;1.60;;;;;;;;;;5030796;28;20037;-65
2022/10/11 12:08:04;;;;;;;5.45;1.98;;;;;;;;;;5030522;28;20091;-65
2022/10/11 12:10:33;;;;;;;4.10;1.42;;;;;;;;;;5031975;28;20025;-65
2022/10/11 12:13:16;;;;;;;5.60;1.48;;;;;;;;;;5048647;28;20545;-65
2022/10/11 12:16:02;;;;;;;6.78;1.65;;;;;;;;;;5047378;28;20041;-65
2022/10/11 12:18:29;;;;;;;3.03;1.30;;;;;;;;;;5042945;28;20588;-65
2022/10/11 12:21:19;;;;;;;3.70;1.20;;;;;;;;;;5047731;28;20037;-65
2022/10/11 12:23:51;;;;;;;7.20;1.33;;;;;;;;;;5069791;28;20108;-65
2022/10/11 12:26:31;;;;;;;4.35;1.25;;;;;;;;;;5069416;28;20032;-65
2022/10/11 12:29:16;;;;;;;7.80;1.85;;;;;;;;;;5069581;28;20462;-65
2022/10/11 12:31:42;;;;;;;7.57;2.22;;;;;;;;;;5070313;28;20516;-65
2022/10/11 12:34:07;;;;;;;9.23;2.75;;;;;;;;;;5070269;28;20100;-65
2022/10/11 12:36:41;;;;;;;14.18;3.78;;;;;;;;;;5051748;28;20032;-65
2022/10/11 12:39:19;;;;;;;5.22;1.90;;;;;;;;;;5063994;28;20086;-65
2022/10/11 12:41:48;;;;;;;7.57;1.88;;;;;;;;;;5051278;28;20106;-65
2022/10/11 12:44:27;;;;;;;8.27;2.08;;;;;;;;;;5048950;28;20117;-65
2022/10/11 12:46:52;;;;;;;5.65;1.40;;;;;;;;;;5048486;28;20722;-65
2022/10/11 12:49:55;;;;;;;10.00;1.23;;;;;;;;;;5050425;28;20059;-65
2022/10/11 12:52:28;;;;;;;4.07;1.52;;;;;;;;;;5044345;28;20049;-65
2022/10/11 12:55:21;;;;;;;8.52;1.50;;;;;;;;;;5049931;28;20055;-65
2022/10/11 12:58:24;;;;;;;9.73;2.20;;;;;;;;;;5049812;28;20029;-65
2022/10/11 13:00:50;;;;;;;5.90;2.13;;;;;;;;;;5046935;28;20033;-65
2022/10/11 13:03:45;;;;;;;5.50;1.77;;;;;;;;;;5033107;28;20037;-65
2022/10/11 13:06:25;;;;;;;7.25;1.73;;;;;;;;;;5029298;28;20112;-65
2022/10/11 13:09:01;;;;;;;5.88;1.25;;;;;;;;;;5028316;28;20542;-65
2022/10/11 13:11:33;;;;;;;7.72;1.50;;;;;;;;;;5031702;28;20115;-65
2022/10/11 13:14:15;;;;;;;3.60;1.33;;;;;;;;;;5038713;28;20601;-65
2022/10/11 13:16:44;;;;;;;3.92;1.30;;;;;;;;;;5031405;28;20575;-65
2022/10/11 13:19:11;;;;;;;4.88;1.20;;;;;;;;;;5050103;28;20017;-65
2022/10/11 13:21:38;;;;;;;11.90;2.42;;;;;;;;;;5050901;28;20041;-65
2022/10/11 13:24:14;;;;;;;6.85;1.30;;;;;;;;;;5048873;28;20029;-65
2022/10/11 13:26:41;;;;;;;5.55;1.25;;;;;;;;;;5049795;28;20029;-64
2022/10/11 13:29:30;;;;;;;5.63;1.60;;;;;;;;;;5047760;28;20037;-64
2022/10/11 13:31:56;;;;;;;2.95;1.50;;;;;;;;;;5043795;28;20112;-65
2022/10/11 13:34:22;;;;;;;3.08;1.25;;;;;;;;;;5047486;28;20499;-65
2022/10/11 13:36:54;;;;;;;11.70;1.65;;;;;;;;;;5049023;28;20548;-65
2022/10/11 13:39:38;;;;;;;2.97;1.20;;;;;;;;;;5048709;28;20044;-65
2022/10/11 13:42:12;;;;;;;9.20;1.38;;;;;;;;;;5051979;28;20782;-65
2022/10/11 13:44:39;;;;;;;9.95;1.85;;;;;;;;;;5068768;28;20036;-65
2022/10/11 13:47:05;;;;;;;5.03;1.42;;;;;;;;;;5051195;28;20124;-65
2022/10/11 13:49:39;;;;;;;6.93;1.55;;;;;;;;;;5068609;28;20116;-65
2022/10/11 13:52:16;;;;;;;10.65;1.90;;;;;;;;;;5050184;28;20551;-64
2022/10/11 13:55:07;;;;;;;5.03;1.42;;;;;;;;;;5051732;28;20120;-65
2022/10/11 13:57:48;;;;;;;3.70;1.20;;;;;;;;;;5016517;28;20036;-65
2022/10/11 14:00:13;;;;;;;5.13;1.45;;;;;;;;;;5028094;28;20033;-64
2022/10/11 14:03:05;;;;;;;5.82;1.00;;;;;;;;;;5048769;28;20045;-64
2022/10/11 14:05:40;;;;;;;8.40;1.45;;;;;;;;;;5030209;28;20179;-64
2022/10/11 14:08:30;;;;;;;5.78;1.25;;;;;;;;;;5049044;28;20029;-65
2022/10/11 14:10:56;;;;;;;2.38;1.15;;;;;;;;;;5047417;28;20414;-65
2022/10/11 14:13:27;;;;;;;4.60;1.70;;;;;;;;;;5055173;28;20132;-65
2022/10/11 14:16:05;;;;;;;4.55;1.50;;;;;;;;;;5030796;28;20463;-64
2022/10/11 14:18:45;;;;;;;8.60;2.38;;;;;;;;;;5048483;28;20543;-65
2022/10/11 14:21:31;;;;;;;6.95;2.30;;;;;;;;;;5048778;28;20040;-65
2022/10/11 14:24:03;;;;;;;6.68;1.40;;;;;;;;;;5030301;28;20053;-64
2022/10/11 14:26:38;;;;;;;5.63;1.42;;;;;;;;;;5047666;28;20047;-65
2022/10/11 14:29:16;;;;;;;7.60;1.20;;;;;;;;;;5048470;28;20081;-65
2022/10/11 14:31:41;;;;;;;7.85;1.40;;;;;;;;;;5048692;28;20709;-65
2022/10/11 14:34:13;;;;;;;5.90;1.70;;;;;;;;;;5043844;28;20026;-64
2022/10/11 14:36:39;;;;;;;5.63;1.30;;;;;;;;;;5045410;28;20045;-65
2022/10/11 14:39:12;;;;;;;7.15;1.80;;;;;;;;;;5048130;28;20096;-65
2022/10/11 14:41:37;;;;;;;4.93;1.50;;;;;;;;;;5048174;28;20037;-65
2022/10/11 14:44:02;;;;;;;6.25;1.77;;;;;;;;;;5046323;28;20485;-64
2022/10/11 14:46:28;;;;;;;6.80;1.90;;;;;;;;;;5046563;28;20124;-65
2022/10/11 14:48:54;;;;;;;9.88;2.60;;;;;;;;;;5046785;28;20037;-64
2022/10/11 14:51:29;;;;;;;6.65;2.00;;;;;;;;;;5029911;28;20125;-65
2022/10/11 14:53:55;;;;;;;6.07;1.50;;;;;;;;;;5048417;28;20033;-65
2022/10/11 14:56:20;;;;;;;7.00;1.73;;;;;;;;;;5046872;28;20067;-65
2022/10/11 14:58:46;;;;;;;4.47;1.17;;;;;;;;;;5046524;28;20018;-65
2022/10/11 15:01:13;;;;;;;4.05;1.77;;;;;;;;;;5048022;28;20048;-65